Airport View

Enter AWOS ICAO identifier for current METAR.

ex. KFNL

KTLH 191908Z 17007KT 10SM SCT025 SCT110 BKN250 24/23 A2992

19 Jun 2019 19:49

Phone: 850-576-3665

Other Area AWOS: K2J9 - KBGE - KTVI - K40J

TAF KTLH 191727Z 1918/2018 25012G30KT P6SM TSRA BKN035CB BKN050 FM191900 24008KT P6SM BKN250 FM201500 25012KT P6SM VCTS BKN050CB